sensor_id;sensor_type;location;lat;lon;timestamp;pressure;altitude;pressure_sealevel;temperature;humidity
41102;BME280;26845;50.190;19.178;2023-02-19T00:01:27;98419.26;;;6.14;98.95
41102;BME280;26845;50.190;19.178;2023-02-19T00:03:55;98425.59;;;6.12;99.46
41102;BME280;26845;50.190;19.178;2023-02-19T00:06:22;98416.58;;;6.14;99.03
41102;BME280;26845;50.190;19.178;2023-02-19T00:08:48;98416.80;;;6.14;98.90
41102;BME280;26845;50.190;19.178;2023-02-19T00:11:19;98422.28;;;6.12;98.70
41102;BME280;26845;50.190;19.178;2023-02-19T00:14:02;98419.91;;;6.06;98.67
41102;BME280;26845;50.190;19.178;2023-02-19T00:16:32;98414.55;;;6.03;98.78
41102;BME280;26845;50.190;19.178;2023-02-19T00:19:03;98407.48;;;6.01;98.81
41102;BME280;26845;50.190;19.178;2023-02-19T00:21:30;98406.60;;;6.01;98.70
41102;BME280;26845;50.190;19.178;2023-02-19T00:23:58;98403.08;;;5.99;99.20
41102;BME280;26845;50.190;19.178;2023-02-19T00:26:27;98408.38;;;5.99;98.95
41102;BME280;26845;50.190;19.178;2023-02-19T00:28:55;98406.92;;;5.98;99.04
41102;BME280;26845;50.190;19.178;2023-02-19T00:31:25;98411.89;;;5.96;99.76
41102;BME280;26845;50.190;19.178;2023-02-19T00:33:56;98402.54;;;5.95;99.95
41102;BME280;26845;50.190;19.178;2023-02-19T00:36:40;98403.92;;;5.94;99.94
41102;BME280;26845;50.190;19.178;2023-02-19T00:39:26;98406.90;;;5.92;100.00
41102;BME280;26845;50.190;19.178;2023-02-19T00:41:54;98405.67;;;5.89;100.00
41102;BME280;26845;50.190;19.178;2023-02-19T00:44:25;98402.84;;;5.86;100.00
41102;BME280;26845;50.190;19.178;2023-02-19T00:46:51;98402.02;;;5.85;100.00
41102;BME280;26845;50.190;19.178;2023-02-19T00:49:35;98392.69;;;5.83;100.00
41102;BME280;26845;50.190;19.178;2023-02-19T00:52:00;98395.67;;;5.81;100.00
41102;BME280;26845;50.190;19.178;2023-02-19T00:54:30;98395.02;;;5.81;100.00
41102;BME280;26845;50.190;19.178;2023-02-19T00:57:19;98392.25;;;5.81;100.00
41102;BME280;26845;50.190;19.178;2023-02-19T00:59:45;98386.73;;;5.81;100.00
41102;BME280;26845;50.190;19.178;2023-02-19T01:02:11;98386.84;;;5.82;100.00
41102;BME280;26845;50.190;19.178;2023-02-19T01:04:37;98387.06;;;5.81;100.00
41102;BME280;26845;50.190;19.178;2023-02-19T01:07:03;98386.87;;;5.80;100.00
41102;BME280;26845;50.190;19.178;2023-02-19T01:09:29;98390.91;;;5.79;100.00
41102;BME280;26845;50.190;19.178;2023-02-19T01:11:56;98388.94;;;5.78;100.00
41102;BME280;26845;50.190;19.178;2023-02-19T01:14:23;98388.02;;;5.77;100.00
41102;BME280;26845;50.190;19.178;2023-02-19T01:16:49;98384.07;;;5.74;100.00
41102;BME280;26845;50.190;19.178;2023-02-19T01:19:24;98377.71;;;5.72;100.00
41102;BME280;26845;50.190;19.178;2023-02-19T01:21:51;98367.96;;;5.71;100.00
41102;BME280;26845;50.190;19.178;2023-02-19T01:24:16;98369.47;;;5.69;100.00
41102;BME280;26845;50.190;19.178;2023-02-19T01:26:43;98369.72;;;5.68;100.00
41102;BME280;26845;50.190;19.178;2023-02-19T01:29:09;98356.70;;;5.67;100.00
41102;BME280;26845;50.190;19.178;2023-02-19T01:31:35;98361.09;;;5.66;100.00
41102;BME280;26845;50.190;19.178;2023-02-19T01:34:04;98362.73;;;5.64;100.00
41102;BME280;26845;50.190;19.178;2023-02-19T01:36:32;98352.94;;;5.64;100.00
41102;BME280;26845;50.190;19.178;2023-02-19T01:39:02;98352.31;;;5.61;100.00
41102;BME280;26845;50.190;19.178;2023-02-19T01:41:30;98347.86;;;5.60;100.00
41102;BME280;26845;50.190;19.178;2023-02-19T01:44:03;98343.08;;;5.59;100.00
41102;BME280;26845;50.190;19.178;2023-02-19T01:46:42;98345.89;;;5.59;100.00
41102;BME280;26845;50.190;19.178;2023-02-19T01:49:18;98347.16;;;5.59;100.00
41102;BME280;26845;50.190;19.178;2023-02-19T01:51:53;98348.80;;;5.58;100.00
41102;BME280;26845;50.190;19.178;2023-02-19T01:54:31;98351.16;;;5.60;100.00
41102;BME280;26845;50.190;19.178;2023-02-19T01:57:33;98347.91;;;5.60;100.00
41102;BME280;26845;50.190;19.178;2023-02-19T02:00:11;98348.61;;;5.61;100.00
41102;BME280;26845;50.190;19.178;2023-02-19T02:02:41;98349.52;;;5.63;100.00
41102;BME280;26845;50.190;19.178;2023-02-19T02:05:20;98345.05;;;5.64;100.00
41102;BME280;26845;50.190;19.178;2023-02-19T02:07:48;98348.28;;;5.65;100.00
41102;BME280;26845;50.190;19.178;2023-02-19T02:10:35;98340.11;;;5.66;100.00
41102;BME280;26845;50.190;19.178;2023-02-19T02:13:03;98335.05;;;5.66;100.00
41102;BME280;26845;50.190;19.178;2023-02-19T02:15:42;98329.75;;;5.65;100.00
41102;BME280;26845;50.190;19.178;2023-02-19T02:18:14;98330.67;;;5.67;100.00
41102;BME280;26845;50.190;19.178;2023-02-19T02:35:41;98314.50;;;5.68;100.00
41102;BME280;26845;50.190;19.178;2023-02-19T02:38:21;98315.91;;;5.69;100.00
41102;BME280;26845;50.190;19.178;2023-02-19T02:40:48;98312.45;;;5.69;100.00
41102;BME280;26845;50.190;19.178;2023-02-19T02:43:14;98316.30;;;5.69;100.00
41102;BME280;26845;50.190;19.178;2023-02-19T02:46:00;98315.09;;;5.69;100.00
41102;BME280;26845;50.190;19.178;2023-02-19T02:53:59;98304.45;;;5.69;100.00
41102;BME280;26845;50.190;19.178;2023-02-19T02:56:47;98297.67;;;5.69;100.00
41102;BME280;26845;50.190;19.178;2023-02-19T02:59:18;98297.46;;;5.68;100.00
41102;BME280;26845;50.190;19.178;2023-02-19T03:01:54;98295.42;;;5.68;100.00
41102;BME280;26845;50.190;19.178;2023-02-19T03:04:52;98294.16;;;5.69;100.00
41102;BME280;26845;50.190;19.178;2023-02-19T03:07:59;98289.91;;;5.68;100.00
41102;BME280;26845;50.190;19.178;2023-02-19T03:10:44;98286.23;;;5.67;100.00
41102;BME280;26845;50.190;19.178;2023-02-19T03:13:19;98280.45;;;5.66;100.00
41102;BME280;26845;50.190;19.178;2023-02-19T03:16:11;98271.06;;;5.64;100.00
41102;BME280;26845;50.190;19.178;2023-02-19T03:19:00;98271.35;;;5.62;100.00
41102;BME280;26845;50.190;19.178;2023-02-19T03:22:09;98271.90;;;5.62;100.00
41102;BME280;26845;50.190;19.178;2023-02-19T03:25:09;98272.52;;;5.61;100.00
41102;BME280;26845;50.190;19.178;2023-02-19T03:27:53;98274.59;;;5.62;100.00
41102;BME280;26845;50.190;19.178;2023-02-19T03:30:26;98280.34;;;5.62;100.00
41102;BME280;26845;50.190;19.178;2023-02-19T03:33:07;98282.65;;;5.63;100.00
41102;BME280;26845;50.190;19.178;2023-02-19T03:36:17;98278.87;;;5.60;100.00
41102;BME280;26845;50.190;19.178;2023-02-19T03:39:10;98277.71;;;5.57;100.00
41102;BME280;26845;50.190;19.178;2023-02-19T03:42:23;98279.52;;;5.54;100.00
41102;BME280;26845;50.190;19.178;2023-02-19T03:47:46;98289.98;;;5.51;100.00
41102;BME280;26845;50.190;19.178;2023-02-19T03:50:45;98287.61;;;5.50;100.00
41102;BME280;26845;50.190;19.178;2023-02-19T03:53:55;98289.17;;;5.50;100.00
41102;BME280;26845;50.190;19.178;2023-02-19T03:59:29;98290.42;;;5.46;100.00
41102;BME280;26845;50.190;19.178;2023-02-19T04:02:23;98283.60;;;5.46;100.00
41102;BME280;26845;50.190;19.178;2023-02-19T04:05:36;98281.98;;;5.47;100.00
41102;BME280;26845;50.190;19.178;2023-02-19T04:08:15;98279.86;;;5.48;100.00
41102;BME280;26845;50.190;19.178;2023-02-19T04:11:00;98274.14;;;5.48;100.00
41102;BME280;26845;50.190;19.178;2023-02-19T04:13:35;98268.82;;;5.46;100.00
41102;BME280;26845;50.190;19.178;2023-02-19T04:16:23;98262.94;;;5.45;100.00
41102;BME280;26845;50.190;19.178;2023-02-19T04:19:12;98262.58;;;5.44;100.00
41102;BME280;26845;50.190;19.178;2023-02-19T04:21:40;98268.81;;;5.42;100.00
41102;BME280;26845;50.190;19.178;2023-02-19T04:24:39;98262.61;;;5.41;100.00
41102;BME280;26845;50.190;19.178;2023-02-19T04:27:10;98262.95;;;5.41;100.00
41102;BME280;26845;50.190;19.178;2023-02-19T04:30:05;98263.08;;;5.43;100.00
41102;BME280;26845;50.190;19.178;2023-02-19T04:32:37;98261.89;;;5.45;100.00
41102;BME280;26845;50.190;19.178;2023-02-19T04:35:08;98260.61;;;5.46;100.00
41102;BME280;26845;50.190;19.178;2023-02-19T04:37:35;98264.73;;;5.47;100.00
41102;BME280;26845;50.190;19.178;2023-02-19T04:40:16;98258.29;;;5.46;100.00
41102;BME280;26845;50.190;19.178;2023-02-19T04:43:02;98251.73;;;5.47;100.00
41102;BME280;26845;50.190;19.178;2023-02-19T04:45:49;98254.44;;;5.50;100.00
41102;BME280;26845;50.190;19.178;2023-02-19T04:48:15;98251.92;;;5.51;100.00
41102;BME280;26845;50.190;19.178;2023-02-19T04:50:58;98238.31;;;5.51;100.00
41102;BME280;26845;50.190;19.178;2023-02-19T04:53:28;98235.65;;;5.57;100.00
41102;BME280;26845;50.190;19.178;2023-02-19T04:56:13;98229.42;;;5.59;100.00
41102;BME280;26845;50.190;19.178;2023-02-19T04:58:57;98225.79;;;5.59;100.00
41102;BME280;26845;50.190;19.178;2023-02-19T05:01:23;98221.50;;;5.63;100.00
41102;BME280;26845;50.190;19.178;2023-02-19T05:03:50;98216.45;;;5.65;100.00
41102;BME280;26845;50.190;19.178;2023-02-19T05:06:17;98204.52;;;5.66;100.00
41102;BME280;26845;50.190;19.178;2023-02-19T05:08:51;98191.73;;;5.69;100.00
41102;BME280;26845;50.190;19.178;2023-02-19T05:11:45;98185.61;;;5.73;100.00
41102;BME280;26845;50.190;19.178;2023-02-19T05:14:13;98172.38;;;5.79;100.00
41102;BME280;26845;50.190;19.178;2023-02-19T05:16:39;98173.98;;;5.85;100.00
41102;BME280;26845;50.190;19.178;2023-02-19T05:19:08;98167.11;;;5.84;100.00
41102;BME280;26845;50.190;19.178;2023-02-19T05:21:58;98166.69;;;5.83;100.00
41102;BME280;26845;50.190;19.178;2023-02-19T05:24:54;98163.70;;;5.80;100.00
41102;BME280;26845;50.190;19.178;2023-02-19T05:27:46;98169.60;;;5.78;100.00
41102;BME280;26845;50.190;19.178;2023-02-19T05:30:34;98172.86;;;5.73;100.00
41102;BME280;26845;50.190;19.178;2023-02-19T05:33:20;98172.46;;;5.71;100.00
41102;BME280;26845;50.190;19.178;2023-02-19T05:35:49;98164.41;;;5.68;100.00
41102;BME280;26845;50.190;19.178;2023-02-19T05:38:22;98164.13;;;5.68;100.00
41102;BME280;26845;50.190;19.178;2023-02-19T05:41:05;98155.07;;;5.68;100.00
41102;BME280;26845;50.190;19.178;2023-02-19T05:44:11;98157.80;;;5.70;100.00
41102;BME280;26845;50.190;19.178;2023-02-19T05:46:37;98155.15;;;5.74;100.00
41102;BME280;26845;50.190;19.178;2023-02-19T05:49:24;98152.81;;;5.79;100.00
41102;BME280;26845;50.190;19.178;2023-02-19T05:51:53;98146.13;;;5.83;100.00
41102;BME280;26845;50.190;19.178;2023-02-19T05:54:35;98145.09;;;5.87;100.00
41102;BME280;26845;50.190;19.178;2023-02-19T05:57:05;98156.86;;;5.90;100.00
41102;BME280;26845;50.190;19.178;2023-02-19T06:00:19;98176.13;;;5.98;100.00
41102;BME280;26845;50.190;19.178;2023-02-19T06:02:48;98183.96;;;6.07;100.00
41102;BME280;26845;50.190;19.178;2023-02-19T06:05:14;98184.70;;;6.16;100.00
41102;BME280;26845;50.190;19.178;2023-02-19T06:08:00;98178.44;;;6.23;100.00
41102;BME280;26845;50.190;19.178;2023-02-19T06:10:26;98180.59;;;6.24;100.00
41102;BME280;26845;50.190;19.178;2023-02-19T06:12:56;98177.23;;;6.19;100.00
41102;BME280;26845;50.190;19.178;2023-02-19T06:15:22;98169.82;;;6.15;100.00
41102;BME280;26845;50.190;19.178;2023-02-19T06:17:49;98167.60;;;6.10;100.00
41102;BME280;26845;50.190;19.178;2023-02-19T06:20:15;98175.96;;;6.04;100.00
41102;BME280;26845;50.190;19.178;2023-02-19T06:22:41;98176.91;;;6.00;100.00
41102;BME280;26845;50.190;19.178;2023-02-19T06:25:07;98174.27;;;5.98;100.00
41102;BME280;26845;50.190;19.178;2023-02-19T06:27:37;98179.67;;;5.98;100.00
41102;BME280;26845;50.190;19.178;2023-02-19T06:30:04;98182.81;;;5.96;100.00
41102;BME280;26845;50.190;19.178;2023-02-19T06:32:29;98185.02;;;5.95;100.00
41102;BME280;26845;50.190;19.178;2023-02-19T06:34:56;98188.55;;;5.94;100.00
41102;BME280;26845;50.190;19.178;2023-02-19T06:37:22;98182.16;;;5.94;100.00
41102;BME280;26845;50.190;19.178;2023-02-19T06:39:48;98185.99;;;5.95;100.00
41102;BME280;26845;50.190;19.178;2023-02-19T06:42:15;98178.36;;;5.96;100.00
41102;BME280;26845;50.190;19.178;2023-02-19T06:44:41;98176.14;;;5.97;100.00
41102;BME280;26845;50.190;19.178;2023-02-19T06:47:15;98172.73;;;5.98;100.00
41102;BME280;26845;50.190;19.178;2023-02-19T06:49:42;98170.41;;;5.97;100.00
41102;BME280;26845;50.190;19.178;2023-02-19T06:52:08;98166.98;;;5.98;100.00
41102;BME280;26845;50.190;19.178;2023-02-19T06:54:34;98172.91;;;5.99;100.00
41102;BME280;26845;50.190;19.178;2023-02-19T06:57:00;98167.95;;;6.01;100.00
41102;BME280;26845;50.190;19.178;2023-02-19T06:59:26;98158.44;;;6.03;100.00
41102;BME280;26845;50.190;19.178;2023-02-19T07:01:53;98162.85;;;6.04;100.00
41102;BME280;26845;50.190;19.178;2023-02-19T07:04:20;98157.10;;;6.07;100.00
41102;BME280;26845;50.190;19.178;2023-02-19T07:06:55;98159.50;;;6.09;100.00
41102;BME280;26845;50.190;19.178;2023-02-19T07:09:20;98155.21;;;6.08;100.00
41102;BME280;26845;50.190;19.178;2023-02-19T07:12:15;98156.08;;;6.09;100.00
41102;BME280;26845;50.190;19.178;2023-02-19T07:14:41;98149.16;;;6.10;100.00
41102;BME280;26845;50.190;19.178;2023-02-19T07:17:07;98146.48;;;6.10;100.00
41102;BME280;26845;50.190;19.178;2023-02-19T07:19:33;98149.56;;;6.10;100.00
41102;BME280;26845;50.190;19.178;2023-02-19T07:21:59;98148.46;;;6.10;100.00
41102;BME280;26845;50.190;19.178;2023-02-19T07:24:26;98145.05;;;6.09;100.00
41102;BME280;26845;50.190;19.178;2023-02-19T07:27:00;98145.73;;;6.11;100.00
41102;BME280;26845;50.190;19.178;2023-02-19T07:29:29;98148.55;;;6.13;100.00
41102;BME280;26845;50.190;19.178;2023-02-19T07:31:55;98143.61;;;6.15;100.00
41102;BME280;26845;50.190;19.178;2023-02-19T07:34:24;98146.39;;;6.18;100.00
41102;BME280;26845;50.190;19.178;2023-02-19T07:36:51;98149.33;;;6.19;100.00
41102;BME280;26845;50.190;19.178;2023-02-19T07:39:17;98141.88;;;6.19;100.00
41102;BME280;26845;50.190;19.178;2023-02-19T07:41:43;98141.43;;;6.19;100.00
41102;BME280;26845;50.190;19.178;2023-02-19T07:44:10;98140.48;;;6.20;100.00
41102;BME280;26845;50.190;19.178;2023-02-19T07:46:38;98137.98;;;6.21;100.00
41102;BME280;26845;50.190;19.178;2023-02-19T07:49:05;98137.11;;;6.23;100.00
41102;BME280;26845;50.190;19.178;2023-02-19T07:51:33;98130.86;;;6.26;100.00
41102;BME280;26845;50.190;19.178;2023-02-19T07:54:01;98123.10;;;6.29;100.00
41102;BME280;26845;50.190;19.178;2023-02-19T07:56:27;98123.67;;;6.31;100.00
41102;BME280;26845;50.190;19.178;2023-02-19T07:58:54;98124.12;;;6.33;100.00
41102;BME280;26845;50.190;19.178;2023-02-19T08:01:22;98117.78;;;6.35;100.00
41102;BME280;26845;50.190;19.178;2023-02-19T08:04:10;98112.63;;;6.39;100.00
41102;BME280;26845;50.190;19.178;2023-02-19T08:06:36;98109.42;;;6.42;100.00
41102;BME280;26845;50.190;19.178;2023-02-19T08:09:03;98108.08;;;6.46;100.00
41102;BME280;26845;50.190;19.178;2023-02-19T08:11:31;98107.67;;;6.49;100.00
41102;BME280;26845;50.190;19.178;2023-02-19T08:14:15;98108.84;;;6.54;100.00
41102;BME280;26845;50.190;19.178;2023-02-19T08:16:51;98105.77;;;6.59;100.00
41102;BME280;26845;50.190;19.178;2023-02-19T08:19:18;98106.23;;;6.64;100.00
41102;BME280;26845;50.190;19.178;2023-02-19T08:21:44;98110.31;;;6.66;100.00
41102;BME280;26845;50.190;19.178;2023-02-19T08:24:10;98115.71;;;6.67;100.00
41102;BME280;26845;50.190;19.178;2023-02-19T08:26:36;98106.38;;;6.67;100.00
41102;BME280;26845;50.190;19.178;2023-02-19T08:29:08;98108.37;;;6.69;100.00
41102;BME280;26845;50.190;19.178;2023-02-19T08:31:34;98107.88;;;6.70;100.00
41102;BME280;26845;50.190;19.178;2023-02-19T08:34:01;98110.15;;;6.74;100.00
41102;BME280;26845;50.190;19.178;2023-02-19T08:36:29;98115.05;;;6.78;100.00
41102;BME280;26845;50.190;19.178;2023-02-19T08:38:55;98116.20;;;6.78;100.00
41102;BME280;26845;50.190;19.178;2023-02-19T08:41:21;98112.50;;;6.80;100.00
41102;BME280;26845;50.190;19.178;2023-02-19T08:43:47;98121.16;;;6.83;100.00
41102;BME280;26845;50.190;19.178;2023-02-19T08:46:13;98122.39;;;6.83;100.00
41102;BME280;26845;50.190;19.178;2023-02-19T08:48:39;98121.95;;;6.83;100.00
41102;BME280;26845;50.190;19.178;2023-02-19T08:51:09;98117.52;;;6.83;100.00
41102;BME280;26845;50.190;19.178;2023-02-19T08:53:36;98111.67;;;6.83;100.00
41102;BME280;26845;50.190;19.178;2023-02-19T08:56:11;98115.45;;;6.82;100.00
41102;BME280;26845;50.190;19.178;2023-02-19T08:58:39;98117.72;;;6.82;100.00
41102;BME280;26845;50.190;19.178;2023-02-19T09:01:11;98129.97;;;6.82;100.00
41102;BME280;26845;50.190;19.178;2023-02-19T09:03:38;98124.78;;;6.82;100.00
41102;BME280;26845;50.190;19.178;2023-02-19T09:06:06;98132.22;;;6.80;100.00
41102;BME280;26845;50.190;19.178;2023-02-19T09:08:32;98129.48;;;6.79;100.00
41102;BME280;26845;50.190;19.178;2023-02-19T09:11:03;98137.45;;;6.79;100.00
41102;BME280;26845;50.190;19.178;2023-02-19T09:13:32;98140.73;;;6.81;100.00
41102;BME280;26845;50.190;19.178;2023-02-19T09:16:02;98137.98;;;6.84;100.00
41102;BME280;26845;50.190;19.178;2023-02-19T09:18:39;98140.15;;;6.87;100.00
41102;BME280;26845;50.190;19.178;2023-02-19T09:21:07;98139.95;;;6.94;100.00
41102;BME280;26845;50.190;19.178;2023-02-19T09:23:34;98139.80;;;7.01;100.00
41102;BME280;26845;50.190;19.178;2023-02-19T09:26:03;98142.14;;;7.00;100.00
41102;BME280;26845;50.190;19.178;2023-02-19T09:28:32;98142.86;;;6.95;100.00
41102;BME280;26845;50.190;19.178;2023-02-19T09:31:06;98148.91;;;6.93;100.00
41102;BME280;26845;50.190;19.178;2023-02-19T09:33:42;98150.41;;;6.87;100.00
41102;BME280;26845;50.190;19.178;2023-02-19T09:36:10;98144.86;;;6.81;100.00
41102;BME280;26845;50.190;19.178;2023-02-19T09:38:45;98153.64;;;6.71;100.00
41102;BME280;26845;50.190;19.178;2023-02-19T09:43:56;98154.95;;;6.49;100.00
41102;BME280;26845;50.190;19.178;2023-02-19T09:46:34;98166.83;;;6.45;100.00
41102;BME280;26845;50.190;19.178;2023-02-19T09:49:06;98168.66;;;6.41;100.00
41102;BME280;26845;50.190;19.178;2023-02-19T09:51:36;98169.18;;;6.38;100.00
41102;BME280;26845;50.190;19.178;2023-02-19T09:54:06;98170.52;;;6.35;100.00
41102;BME280;26845;50.190;19.178;2023-02-19T09:56:38;98171.52;;;6.35;100.00
41102;BME280;26845;50.190;19.178;2023-02-19T09:59:28;98170.33;;;6.36;100.00
41102;BME280;26845;50.190;19.178;2023-02-19T10:04:40;98185.10;;;6.40;100.00
41102;BME280;26845;50.190;19.178;2023-02-19T10:07:13;98186.27;;;6.43;100.00
41102;BME280;26845;50.190;19.178;2023-02-19T10:09:39;98192.02;;;6.41;100.00
41102;BME280;26845;50.190;19.178;2023-02-19T10:12:29;98203.09;;;6.36;100.00
41102;BME280;26845;50.190;19.178;2023-02-19T10:15:08;98203.75;;;6.37;100.00
41102;BME280;26845;50.190;19.178;2023-02-19T10:17:41;98209.03;;;6.38;100.00
41102;BME280;26845;50.190;19.178;2023-02-19T10:20:13;98211.09;;;6.34;100.00
41102;BME280;26845;50.190;19.178;2023-02-19T10:22:39;98214.17;;;6.28;100.00
41102;BME280;26845;50.190;19.178;2023-02-19T10:25:05;98218.02;;;6.24;100.00
41102;BME280;26845;50.190;19.178;2023-02-19T10:27:32;98218.14;;;6.23;100.00
41102;BME280;26845;50.190;19.178;2023-02-19T10:29:59;98219.95;;;6.20;100.00
41102;BME280;26845;50.190;19.178;2023-02-19T10:32:30;98220.46;;;6.20;100.00
41102;BME280;26845;50.190;19.178;2023-02-19T10:35:14;98226.33;;;6.15;100.00
41102;BME280;26845;50.190;19.178;2023-02-19T10:38:02;98239.13;;;6.15;100.00
41102;BME280;26845;50.190;19.178;2023-02-19T10:40:32;98248.08;;;6.04;99.93
41102;BME280;26845;50.190;19.178;2023-02-19T10:43:22;98259.67;;;5.92;99.92
41102;BME280;26845;50.190;19.178;2023-02-19T10:46:17;98272.33;;;5.86;99.74
41102;BME280;26845;50.190;19.178;2023-02-19T10:49:06;98267.15;;;5.74;99.38
41102;BME280;26845;50.190;19.178;2023-02-19T10:51:42;98267.41;;;5.64;99.42
41102;BME280;26845;50.190;19.178;2023-02-19T10:54:34;98266.61;;;5.62;99.92
41102;BME280;26845;50.190;19.178;2023-02-19T10:57:22;98273.85;;;5.64;99.99
41102;BME280;26845;50.190;19.178;2023-02-19T11:00:27;98273.98;;;5.71;100.00
41102;BME280;26845;50.190;19.178;2023-02-19T11:03:27;98269.92;;;5.81;100.00
41102;BME280;26845;50.190;19.178;2023-02-19T11:06:01;98283.61;;;5.93;100.00
41102;BME280;26845;50.190;19.178;2023-02-19T11:08:48;98285.46;;;5.98;100.00
41102;BME280;26845;50.190;19.178;2023-02-19T11:11:55;98289.72;;;6.02;100.00
41102;BME280;26845;50.190;19.178;2023-02-19T11:14:24;98295.13;;;6.04;100.00
41102;BME280;26845;50.190;19.178;2023-02-19T11:16:58;98296.15;;;6.10;100.00
41102;BME280;26845;50.190;19.178;2023-02-19T11:19:58;98297.25;;;6.11;99.91
41102;BME280;26845;50.190;19.178;2023-02-19T11:22:51;98307.26;;;6.03;99.53
41102;BME280;26845;50.190;19.178;2023-02-19T11:25:47;98314.04;;;5.95;99.45
41102;BME280;26845;50.190;19.178;2023-02-19T11:29:16;98324.83;;;5.93;98.98
41102;BME280;26845;50.190;19.178;2023-02-19T11:32:43;98327.30;;;5.82;98.88
41102;BME280;26845;50.190;19.178;2023-02-19T11:36:17;98334.75;;;5.75;98.70
41102;BME280;26845;50.190;19.178;2023-02-19T11:39:36;98337.85;;;5.71;98.61
41102;BME280;26845;50.190;19.178;2023-02-19T11:42:53;98336.45;;;5.68;98.53
41102;BME280;26845;50.190;19.178;2023-02-19T11:52:40;98354.52;;;5.57;98.57
41102;BME280;26845;50.190;19.178;2023-02-19T11:58:16;98374.55;;;5.55;98.29
41102;BME280;26845;50.190;19.178;2023-02-19T12:10:20;98398.85;;;5.52;98.09
41102;BME280;26845;50.190;19.178;2023-02-19T12:22:30;98402.75;;;5.43;97.52
41102;BME280;26845;50.190;19.178;2023-02-19T12:25:44;98413.27;;;5.45;98.08
41102;BME280;26845;50.190;19.178;2023-02-19T12:32:34;98417.42;;;5.20;96.69
41102;BME280;26845;50.190;19.178;2023-02-19T12:38:23;98426.42;;;5.07;96.82
41102;BME280;26845;50.190;19.178;2023-02-19T12:44:18;98431.54;;;4.92;97.28
41102;BME280;26845;50.190;19.178;2023-02-19T12:46:55;98435.83;;;4.86;97.11
41102;BME280;26845;50.190;19.178;2023-02-19T12:50:19;98436.73;;;4.76;96.89
41102;BME280;26845;50.190;19.178;2023-02-19T12:53:30;98442.07;;;4.69;97.21
41102;BME280;26845;50.190;19.178;2023-02-19T12:57:02;98444.50;;;4.68;97.49
41102;BME280;26845;50.190;19.178;2023-02-19T13:00:37;98451.55;;;4.69;97.96
41102;BME280;26845;50.190;19.178;2023-02-19T13:03:21;98451.95;;;4.72;97.70
41102;BME280;26845;50.190;19.178;2023-02-19T13:09:06;98468.04;;;4.71;97.11
41102;BME280;26845;50.190;19.178;2023-02-19T13:11:40;98470.25;;;4.69;97.04
41102;BME280;26845;50.190;19.178;2023-02-19T13:14:35;98470.70;;;4.71;97.20
41102;BME280;26845;50.190;19.178;2023-02-19T13:17:27;98473.36;;;4.73;97.41
41102;BME280;26845;50.190;19.178;2023-02-19T13:20:00;98474.67;;;4.77;97.47
41102;BME280;26845;50.190;19.178;2023-02-19T13:22:44;98480.90;;;4.65;95.80
41102;BME280;26845;50.190;19.178;2023-02-19T13:25:57;98482.36;;;4.38;95.81
41102;BME280;26845;50.190;19.178;2023-02-19T13:37:34;98512.41;;;3.85;93.70
41102;BME280;26845;50.190;19.178;2023-02-19T13:42:57;98530.94;;;3.67;93.10
41102;BME280;26845;50.190;19.178;2023-02-19T13:48:02;98542.88;;;3.51;92.62
41102;BME280;26845;50.190;19.178;2023-02-19T13:50:37;98549.80;;;3.51;93.50
41102;BME280;26845;50.190;19.178;2023-02-19T13:59:32;98553.90;;;3.73;94.28
41102;BME280;26845;50.190;19.178;2023-02-19T14:04:55;98574.02;;;3.91;92.17
41102;BME280;26845;50.190;19.178;2023-02-19T14:07:52;98576.41;;;4.02;92.75
41102;BME280;26845;50.190;19.178;2023-02-19T14:10:53;98575.57;;;4.09;92.11
41102;BME280;26845;50.190;19.178;2023-02-19T14:18:59;98580.48;;;4.05;91.51
41102;BME280;26845;50.190;19.178;2023-02-19T14:21:38;98578.62;;;4.05;90.86
41102;BME280;26845;50.190;19.178;2023-02-19T14:24:10;98585.84;;;3.98;89.48
41102;BME280;26845;50.190;19.178;2023-02-19T14:26:36;98591.90;;;3.91;90.22
41102;BME280;26845;50.190;19.178;2023-02-19T14:29:07;98595.71;;;3.89;90.26
41102;BME280;26845;50.190;19.178;2023-02-19T14:31:36;98600.13;;;3.84;90.08
41102;BME280;26845;50.190;19.178;2023-02-19T14:34:13;98606.35;;;3.78;87.50
41102;BME280;26845;50.190;19.178;2023-02-19T14:36:51;98613.88;;;3.68;88.46
41102;BME280;26845;50.190;19.178;2023-02-19T14:41:51;98621.03;;;3.60;89.22
41102;BME280;26845;50.190;19.178;2023-02-19T14:44:50;98619.77;;;3.56;87.97
41102;BME280;26845;50.190;19.178;2023-02-19T14:47:20;98618.45;;;3.52;88.56
41102;BME280;26845;50.190;19.178;2023-02-19T14:49:56;98623.41;;;3.50;89.04
41102;BME280;26845;50.190;19.178;2023-02-19T14:52:27;98626.53;;;3.50;89.30
41102;BME280;26845;50.190;19.178;2023-02-19T14:55:00;98629.52;;;3.51;89.47
41102;BME280;26845;50.190;19.178;2023-02-19T14:57:37;98627.08;;;3.49;88.48
41102;BME280;26845;50.190;19.178;2023-02-19T15:02:47;98629.49;;;3.53;89.10
41102;BME280;26845;50.190;19.178;2023-02-19T15:05:20;98639.19;;;3.52;88.71
41102;BME280;26845;50.190;19.178;2023-02-19T15:07:49;98639.52;;;3.47;88.85
41102;BME280;26845;50.190;19.178;2023-02-19T15:10:16;98634.83;;;3.46;88.62
41102;BME280;26845;50.190;19.178;2023-02-19T15:15:23;98644.62;;;3.42;89.36
41102;BME280;26845;50.190;19.178;2023-02-19T15:17:51;98646.16;;;3.46;89.67
41102;BME280;26845;50.190;19.178;2023-02-19T15:20:25;98651.21;;;3.49;89.54
41102;BME280;26845;50.190;19.178;2023-02-19T15:23:04;98651.09;;;3.54;88.76
41102;BME280;26845;50.190;19.178;2023-02-19T15:25:36;98654.35;;;3.56;88.86
41102;BME280;26845;50.190;19.178;2023-02-19T15:31:15;98667.64;;;3.53;88.14
41102;BME280;26845;50.190;19.178;2023-02-19T15:33:48;98675.52;;;3.55;88.78
41102;BME280;26845;50.190;19.178;2023-02-19T15:36:19;98671.77;;;3.60;88.98
41102;BME280;26845;50.190;19.178;2023-02-19T15:38:52;98676.55;;;3.64;88.60